Time;durP1;ratioP1;P1;durP2;ratioP2;P2;SDS_P1;SDS_P2;PMS_P1;PMS_P2;Temp;Humidity;BMP_temperature;BMP_pressure;BME280_temperature;BME280_humidity;BME280_pressure;Samples;Min_cycle;Max_cycle;Signal;HPM_P1;HPM_P2
2022/07/23 00:01:47;;;;;;;6.60;1.50;;;;;;;;;;5054836;28;20035;-78
2022/07/23 00:04:13;;;;;;;9.73;1.80;;;;;;;;;;5060214;28;20021;-77
2022/07/23 00:06:39;;;;;;;6.93;1.48;;;;;;;;;;5055131;28;20028;-77
2022/07/23 00:09:05;;;;;;;7.68;1.90;;;;;;;;;;5055890;28;20060;-77
2022/07/23 00:11:31;;;;;;;3.72;1.38;;;;;;;;;;5055213;28;20025;-77
2022/07/23 00:13:57;;;;;;;9.13;1.58;;;;;;;;;;5063127;28;20029;-77
2022/07/23 00:16:23;;;;;;;8.85;1.63;;;;;;;;;;5060428;28;20036;-76
2022/07/23 00:18:49;;;;;;;4.80;1.60;;;;;;;;;;5064794;28;20107;-75
2022/07/23 00:21:15;;;;;;;7.38;1.42;;;;;;;;;;5073692;28;20059;-76
2022/07/23 00:23:41;;;;;;;8.95;2.22;;;;;;;;;;5074820;28;20029;-75
2022/07/23 00:26:07;;;;;;;6.30;1.63;;;;;;;;;;5075698;28;20029;-75
2022/07/23 00:28:33;;;;;;;7.78;1.60;;;;;;;;;;5074822;28;20110;-77
2022/07/23 00:30:59;;;;;;;12.68;1.92;;;;;;;;;;5072187;28;20028;-77
2022/07/23 00:33:25;;;;;;;5.80;1.50;;;;;;;;;;5060123;28;20033;-77
2022/07/23 00:35:51;;;;;;;5.97;1.52;;;;;;;;;;5056425;28;20082;-76
2022/07/23 00:38:17;;;;;;;8.40;1.42;;;;;;;;;;5057829;28;20029;-77
2022/07/23 00:40:43;;;;;;;6.68;1.42;;;;;;;;;;5057341;28;20431;-77
2022/07/23 00:43:09;;;;;;;7.57;1.27;;;;;;;;;;5060983;28;20059;-76
2022/07/23 00:45:35;;;;;;;6.07;1.63;;;;;;;;;;5056168;28;20024;-76
2022/07/23 00:48:01;;;;;;;9.00;1.58;;;;;;;;;;5058881;28;20024;-77
2022/07/23 00:50:27;;;;;;;7.10;1.20;;;;;;;;;;5060194;28;20021;-77
2022/07/23 00:52:54;;;;;;;4.45;1.20;;;;;;;;;;5058861;28;20021;-78
2022/07/23 00:55:20;;;;;;;5.55;1.20;;;;;;;;;;5057710;28;20070;-77
2022/07/23 00:57:46;;;;;;;12.55;1.55;;;;;;;;;;5058016;28;20029;-77
2022/07/23 01:00:14;;;;;;;5.47;1.90;;;;;;;;;;5067314;28;20104;-76
2022/07/23 01:02:40;;;;;;;7.05;2.15;;;;;;;;;;5079924;28;20028;-76
2022/07/23 01:05:06;;;;;;;8.05;1.83;;;;;;;;;;5059359;28;20037;-77
2022/07/23 01:07:33;;;;;;;7.22;1.50;;;;;;;;;;5061166;28;20021;-76
2022/07/23 01:09:59;;;;;;;5.28;1.80;;;;;;;;;;5054715;28;20075;-77
2022/07/23 01:12:25;;;;;;;7.07;1.58;;;;;;;;;;5055762;28;20040;-77
2022/07/23 01:14:58;;;;;;;7.85;1.30;;;;;;;;;;5054250;28;20090;-77
2022/07/23 01:17:24;;;;;;;9.02;1.58;;;;;;;;;;5056612;28;20045;-75
2022/07/23 01:19:50;;;;;;;6.25;1.45;;;;;;;;;;5059001;28;20036;-78
2022/07/23 01:22:18;;;;;;;9.73;1.98;;;;;;;;;;5062434;28;20078;-76
2022/07/23 01:24:44;;;;;;;4.15;1.50;;;;;;;;;;5055824;28;20021;-77
2022/07/23 01:27:10;;;;;;;6.50;1.55;;;;;;;;;;5058597;28;20470;-76
2022/07/23 01:29:36;;;;;;;3.67;1.27;;;;;;;;;;5054864;28;20406;-77
2022/07/23 01:32:02;;;;;;;6.88;1.48;;;;;;;;;;5056159;28;20029;-75
2022/07/23 01:34:28;;;;;;;5.18;1.52;;;;;;;;;;5054324;28;20031;-77
2022/07/23 01:36:54;;;;;;;4.78;1.20;;;;;;;;;;5054875;28;20036;-76
2022/07/23 01:39:19;;;;;;;5.75;1.58;;;;;;;;;;5052828;28;20083;-76
2022/07/23 01:41:46;;;;;;;6.88;1.52;;;;;;;;;;5053972;28;20055;-77
2022/07/23 01:44:12;;;;;;;6.30;1.58;;;;;;;;;;5056811;28;20021;-77
2022/07/23 01:46:39;;;;;;;5.22;1.40;;;;;;;;;;5055787;28;20028;-77
2022/07/23 01:49:05;;;;;;;3.90;1.10;;;;;;;;;;5059677;28;20028;-77
2022/07/23 01:51:31;;;;;;;6.28;1.25;;;;;;;;;;5059326;28;20025;-76
2022/07/23 01:53:56;;;;;;;6.35;1.42;;;;;;;;;;5069322;28;20034;-75
2022/07/23 01:56:22;;;;;;;6.90;1.48;;;;;;;;;;5067310;28;20060;-75
2022/07/23 01:58:49;;;;;;;7.28;1.40;;;;;;;;;;5063721;28;20032;-77
2022/07/23 02:01:15;;;;;;;5.30;1.30;;;;;;;;;;5062441;28;20036;-77
2022/07/23 02:03:41;;;;;;;10.02;1.70;;;;;;;;;;5057344;28;20025;-76
2022/07/23 02:06:07;;;;;;;10.25;1.42;;;;;;;;;;5057379;28;20517;-77
2022/07/23 02:08:33;;;;;;;4.15;1.42;;;;;;;;;;5054183;28;20397;-76
2022/07/23 02:10:59;;;;;;;5.75;1.17;;;;;;;;;;5056139;28;20021;-79
2022/07/23 02:13:25;;;;;;;6.68;1.40;;;;;;;;;;5063488;28;20104;-77
2022/07/23 02:15:51;;;;;;;3.83;1.10;;;;;;;;;;5056855;28;20044;-78
2022/07/23 02:18:16;;;;;;;7.85;1.70;;;;;;;;;;5069742;28;20025;-78
2022/07/23 02:20:44;;;;;;;7.70;1.73;;;;;;;;;;5061800;28;20060;-77
2022/07/23 02:23:10;;;;;;;9.13;1.70;;;;;;;;;;5059893;28;20025;-76
2022/07/23 02:25:36;;;;;;;8.00;1.40;;;;;;;;;;5066414;28;20112;-75
2022/07/23 02:28:02;;;;;;;8.13;1.60;;;;;;;;;;5068040;28;20028;-76
2022/07/23 02:30:28;;;;;;;7.72;1.50;;;;;;;;;;5065644;28;20409;-76
2022/07/23 02:32:54;;;;;;;9.63;2.40;;;;;;;;;;5054850;28;20157;-78
2022/07/23 02:35:20;;;;;;;9.63;1.75;;;;;;;;;;5055098;28;20535;-78
2022/07/23 02:37:46;;;;;;;10.63;1.75;;;;;;;;;;5061515;28;20111;-76
2022/07/23 02:40:12;;;;;;;5.35;1.50;;;;;;;;;;5060974;28;20032;-77
2022/07/23 02:42:38;;;;;;;4.80;1.40;;;;;;;;;;5056472;28;20454;-77
2022/07/23 02:45:05;;;;;;;10.40;2.38;;;;;;;;;;5053641;28;20432;-76
2022/07/23 02:47:32;;;;;;;7.63;1.48;;;;;;;;;;5055496;28;20025;-77
2022/07/23 02:49:58;;;;;;;7.63;1.98;;;;;;;;;;5056239;28;20057;-77
2022/07/23 02:52:23;;;;;;;6.20;1.40;;;;;;;;;;5056948;28;20029;-77
2022/07/23 02:54:49;;;;;;;5.38;1.42;;;;;;;;;;5056508;28;20033;-77
2022/07/23 02:57:15;;;;;;;6.40;1.40;;;;;;;;;;5070587;28;20050;-76
2022/07/23 02:59:41;;;;;;;5.35;1.33;;;;;;;;;;5077222;28;20016;-75
2022/07/23 03:02:07;;;;;;;7.70;1.70;;;;;;;;;;5077601;28;20028;-75
2022/07/23 03:04:33;;;;;;;6.85;1.70;;;;;;;;;;5077141;28;20029;-75
2022/07/23 03:06:59;;;;;;;4.38;1.23;;;;;;;;;;5077359;28;20017;-74
2022/07/23 03:09:25;;;;;;;6.50;1.50;;;;;;;;;;5065546;28;20095;-76
2022/07/23 03:11:51;;;;;;;6.80;1.63;;;;;;;;;;5055796;28;20397;-77
2022/07/23 03:14:17;;;;;;;10.48;1.25;;;;;;;;;;5056874;28;20420;-77
2022/07/23 03:16:43;;;;;;;11.18;1.77;;;;;;;;;;5057499;28;20040;-77
2022/07/23 03:19:09;;;;;;;5.80;1.25;;;;;;;;;;5060053;28;20159;-77
2022/07/23 03:21:38;;;;;;;5.75;1.50;;;;;;;;;;5054102;28;20077;-77
2022/07/23 03:24:04;;;;;;;4.15;1.20;;;;;;;;;;5064224;28;20013;-76
2022/07/23 03:26:30;;;;;;;8.60;1.38;;;;;;;;;;5077399;28;20025;-76
2022/07/23 03:28:56;;;;;;;6.70;1.60;;;;;;;;;;5058621;28;20412;-77
2022/07/23 03:31:22;;;;;;;7.55;1.73;;;;;;;;;;5053498;28;20021;-78
2022/07/23 03:33:48;;;;;;;5.35;1.30;;;;;;;;;;5055654;28;20028;-77
2022/07/23 03:36:14;;;;;;;10.18;1.40;;;;;;;;;;5058064;28;20127;-78
2022/07/23 03:38:40;;;;;;;8.57;1.30;;;;;;;;;;5056211;28;20032;-76
2022/07/23 03:41:06;;;;;;;6.07;1.60;;;;;;;;;;5055473;28;20025;-78
2022/07/23 03:43:32;;;;;;;9.73;1.38;;;;;;;;;;5053794;28;20112;-78
2022/07/23 03:45:58;;;;;;;4.97;1.30;;;;;;;;;;5059753;28;20035;-76
2022/07/23 03:48:24;;;;;;;6.05;1.35;;;;;;;;;;5070074;28;20382;-76
2022/07/23 03:50:50;;;;;;;6.55;1.20;;;;;;;;;;5053148;28;20393;-77
2022/07/23 03:53:16;;;;;;;6.35;1.55;;;;;;;;;;5053423;28;20033;-75
2022/07/23 03:55:42;;;;;;;5.13;1.10;;;;;;;;;;5058424;28;20025;-76
2022/07/23 03:58:08;;;;;;;5.60;1.60;;;;;;;;;;5058443;28;20036;-76
2022/07/23 04:00:33;;;;;;;8.05;1.70;;;;;;;;;;5057853;28;20104;-77
2022/07/23 04:02:59;;;;;;;6.05;1.77;;;;;;;;;;5058553;28;20048;-76
2022/07/23 04:05:25;;;;;;;5.35;1.45;;;;;;;;;;5056017;28;20025;-77
2022/07/23 04:07:51;;;;;;;7.25;1.92;;;;;;;;;;5058274;28;20028;-75
2022/07/23 04:10:17;;;;;;;10.15;1.88;;;;;;;;;;5058181;28;20502;-77
2022/07/23 04:12:43;;;;;;;8.27;1.80;;;;;;;;;;5058933;28;20029;-76
2022/07/23 04:15:09;;;;;;;10.75;1.73;;;;;;;;;;5061844;28;20129;-75
2022/07/23 04:17:35;;;;;;;6.30;1.80;;;;;;;;;;5061510;28;20024;-77
2022/07/23 04:20:01;;;;;;;7.90;1.90;;;;;;;;;;5061724;28;20040;-77
2022/07/23 04:22:27;;;;;;;5.28;1.50;;;;;;;;;;5064329;28;20037;-77
2022/07/23 04:24:53;;;;;;;7.03;1.50;;;;;;;;;;5064170;28;20105;-77
2022/07/23 04:27:19;;;;;;;8.25;1.70;;;;;;;;;;5065066;28;20025;-77
2022/07/23 04:29:45;;;;;;;6.68;1.70;;;;;;;;;;5063563;28;20032;-77
2022/07/23 04:32:11;;;;;;;4.05;1.35;;;;;;;;;;5064763;28;20040;-76
2022/07/23 04:34:37;;;;;;;8.68;1.50;;;;;;;;;;5059737;28;20028;-76
2022/07/23 04:37:03;;;;;;;6.30;1.80;;;;;;;;;;5059625;28;20029;-76
2022/07/23 04:39:29;;;;;;;9.60;2.20;;;;;;;;;;5063156;28;20037;-76
2022/07/23 04:41:55;;;;;;;11.30;1.83;;;;;;;;;;5057757;28;20493;-76
2022/07/23 04:44:21;;;;;;;5.15;1.40;;;;;;;;;;5055464;28;20021;-76
2022/07/23 04:46:47;;;;;;;5.25;1.50;;;;;;;;;;5055466;28;20363;-75
2022/07/23 04:49:13;;;;;;;4.47;1.40;;;;;;;;;;5055191;28;20024;-75
2022/07/23 04:51:39;;;;;;;6.68;1.48;;;;;;;;;;5055313;28;20553;-75
2022/07/23 04:54:05;;;;;;;12.90;1.40;;;;;;;;;;5055039;28;20025;-76
2022/07/23 04:56:31;;;;;;;7.25;1.42;;;;;;;;;;5054625;28;20503;-74
2022/07/23 04:58:57;;;;;;;3.47;1.17;;;;;;;;;;5054863;28;20033;-76
2022/07/23 05:01:23;;;;;;;4.25;1.02;;;;;;;;;;5054910;28;20040;-76
2022/07/23 05:03:49;;;;;;;3.65;1.02;;;;;;;;;;5055090;28;20021;-77
2022/07/23 05:06:15;;;;;;;6.53;2.00;;;;;;;;;;5056090;28;20036;-76
2022/07/23 05:08:41;;;;;;;4.05;1.00;;;;;;;;;;5056164;28;20040;-77
2022/07/23 05:11:07;;;;;;;4.57;1.05;;;;;;;;;;5057334;28;20029;-77
2022/07/23 05:13:33;;;;;;;2.38;1.10;;;;;;;;;;5057706;28;20078;-76
2022/07/23 05:15:59;;;;;;;2.40;0.82;;;;;;;;;;5056122;28;20092;-77
2022/07/23 05:18:25;;;;;;;2.92;1.35;;;;;;;;;;5060939;28;20021;-76
2022/07/23 05:20:51;;;;;;;1.25;0.82;;;;;;;;;;5081859;22;20482;-76
2022/07/23 05:23:17;;;;;;;6.88;1.15;;;;;;;;;;5055624;28;20497;-77
2022/07/23 05:25:43;;;;;;;3.65;0.93;;;;;;;;;;5058040;28;20017;-76
2022/07/23 05:28:09;;;;;;;5.25;1.27;;;;;;;;;;5058013;28;20021;-76
2022/07/23 05:30:35;;;;;;;4.70;1.17;;;;;;;;;;5061646;28;20048;-76
2022/07/23 05:33:01;;;;;;;6.45;1.45;;;;;;;;;;5058963;28;20032;-77
2022/07/23 05:35:27;;;;;;;4.97;1.10;;;;;;;;;;5056189;28;20119;-76
2022/07/23 05:37:53;;;;;;;6.78;1.30;;;;;;;;;;5053958;28;20474;-76
2022/07/23 05:40:19;;;;;;;8.27;1.42;;;;;;;;;;5056544;28;20033;-78
2022/07/23 05:42:45;;;;;;;2.35;1.08;;;;;;;;;;5059771;28;20029;-77
2022/07/23 05:45:11;;;;;;;3.78;1.35;;;;;;;;;;5055539;28;20484;-76
2022/07/23 05:47:41;;;;;;;3.80;0.80;;;;;;;;;;5054730;28;20413;-76
2022/07/23 05:50:07;;;;;;;4.93;1.30;;;;;;;;;;5055498;28;20163;-77
2022/07/23 05:52:33;;;;;;;4.30;1.17;;;;;;;;;;5056888;28;20401;-77
2022/07/23 05:54:59;;;;;;;6.63;1.17;;;;;;;;;;5065725;28;20025;-77
2022/07/23 05:57:25;;;;;;;6.05;1.48;;;;;;;;;;5067098;28;20474;-76
2022/07/23 05:59:51;;;;;;;4.80;1.45;;;;;;;;;;5055134;28;20025;-76
2022/07/23 06:02:17;;;;;;;3.95;0.85;;;;;;;;;;5054555;28;20068;-77
2022/07/23 06:04:43;;;;;;;5.95;1.30;;;;;;;;;;5054699;28;20025;-77
2022/07/23 06:07:09;;;;;;;6.30;1.15;;;;;;;;;;5054471;28;20120;-76
2022/07/23 06:09:35;;;;;;;2.28;1.17;;;;;;;;;;5054629;28;20028;-76
2022/07/23 06:12:01;;;;;;;5.68;1.73;;;;;;;;;;5054697;28;20021;-77
2022/07/23 06:14:27;;;;;;;6.00;1.50;;;;;;;;;;5056568;28;20035;-77
2022/07/23 06:16:52;;;;;;;4.90;1.25;;;;;;;;;;5054996;28;20031;-82
2022/07/23 06:19:18;;;;;;;5.07;1.27;;;;;;;;;;5065224;28;20035;-79
2022/07/23 06:21:44;;;;;;;4.60;1.10;;;;;;;;;;5064713;28;20037;-78
2022/07/23 06:24:10;;;;;;;2.42;1.00;;;;;;;;;;5057092;28;20124;-77
2022/07/23 06:26:36;;;;;;;3.25;1.42;;;;;;;;;;5054496;28;20044;-77
2022/07/23 06:29:02;;;;;;;2.75;1.02;;;;;;;;;;5052962;28;20497;-78
2022/07/23 06:31:28;;;;;;;6.82;1.55;;;;;;;;;;5043568;28;20331;-76
2022/07/23 06:33:54;;;;;;;5.35;1.17;;;;;;;;;;5043809;28;20029;-75
2022/07/23 06:36:20;;;;;;;5.13;0.98;;;;;;;;;;5052703;28;20107;-77
2022/07/23 06:38:46;;;;;;;5.53;1.30;;;;;;;;;;5055429;28;20501;-75
2022/07/23 06:41:12;;;;;;;2.65;0.98;;;;;;;;;;5056215;28;20047;-75
2022/07/23 06:43:38;;;;;;;5.07;1.23;;;;;;;;;;5054164;28;20533;-76
2022/07/23 06:46:04;;;;;;;3.80;1.10;;;;;;;;;;5053501;28;20032;-75
2022/07/23 06:48:30;;;;;;;6.30;1.70;;;;;;;;;;5053845;28;20029;-76
2022/07/23 06:50:56;;;;;;;4.13;1.42;;;;;;;;;;5053215;28;20394;-77
2022/07/23 06:53:22;;;;;;;4.60;1.30;;;;;;;;;;5066865;28;20057;-77
2022/07/23 06:55:48;;;;;;;4.15;1.70;;;;;;;;;;5059338;28;20029;-77
2022/07/23 06:58:15;;;;;;;6.68;1.60;;;;;;;;;;5055988;28;20021;-78
2022/07/23 07:00:41;;;;;;;6.80;1.70;;;;;;;;;;5056718;28;20059;-78
2022/07/23 07:03:07;;;;;;;6.28;1.50;;;;;;;;;;5055896;28;20032;-78
2022/07/23 07:05:33;;;;;;;3.90;1.40;;;;;;;;;;5052986;28;20021;-77
2022/07/23 07:07:59;;;;;;;8.82;1.67;;;;;;;;;;5054828;28;20486;-77
2022/07/23 07:10:25;;;;;;;4.75;1.10;;;;;;;;;;5054857;28;20497;-77
2022/07/23 07:12:51;;;;;;;6.32;1.35;;;;;;;;;;5054761;28;20477;-76
2022/07/23 07:15:16;;;;;;;6.40;1.63;;;;;;;;;;5055023;28;20190;-78
2022/07/23 07:17:42;;;;;;;6.47;1.23;;;;;;;;;;5055884;28;20073;-76
2022/07/23 07:20:09;;;;;;;6.93;1.40;;;;;;;;;;5054979;28;20021;-75
2022/07/23 07:22:36;;;;;;;4.80;1.20;;;;;;;;;;5055478;28;20041;-77
2022/07/23 07:25:02;;;;;;;3.58;0.80;;;;;;;;;;5057471;28;20035;-77
2022/07/23 07:27:28;;;;;;;4.20;1.20;;;;;;;;;;5060614;28;20029;-78
2022/07/23 07:29:54;;;;;;;7.38;0.90;;;;;;;;;;5056891;28;20077;-78
2022/07/23 07:32:20;;;;;;;4.82;1.30;;;;;;;;;;5056769;28;20029;-78
2022/07/23 07:34:46;;;;;;;4.65;1.60;;;;;;;;;;5058306;28;20035;-82
2022/07/23 07:37:12;;;;;;;4.32;1.00;;;;;;;;;;5056903;28;20033;-77
2022/07/23 07:39:37;;;;;;;2.83;0.80;;;;;;;;;;5060945;28;20033;-80
2022/07/23 07:42:03;;;;;;;6.75;3.10;;;;;;;;;;5057370;28;20112;-77
2022/07/23 07:44:29;;;;;;;4.68;1.20;;;;;;;;;;5059555;28;20021;-77
2022/07/23 07:46:55;;;;;;;5.65;1.00;;;;;;;;;;5057341;28;20489;-78
2022/07/23 07:49:22;;;;;;;4.45;0.90;;;;;;;;;;5056268;28;20032;-76
2022/07/23 07:51:48;;;;;;;5.97;1.40;;;;;;;;;;5057746;28;20100;-78
2022/07/23 07:54:14;;;;;;;4.13;1.13;;;;;;;;;;5056154;28;20431;-77
2022/07/23 07:56:40;;;;;;;4.82;1.13;;;;;;;;;;5054498;28;20033;-78
2022/07/23 07:59:06;;;;;;;6.03;1.33;;;;;;;;;;5057726;28;20025;-78
2022/07/23 08:01:32;;;;;;;5.28;1.23;;;;;;;;;;5055280;28;20033;-78
2022/07/23 08:03:58;;;;;;;4.50;1.45;;;;;;;;;;5062341;28;20059;-76
2022/07/23 08:06:24;;;;;;;6.63;1.08;;;;;;;;;;5070033;28;20498;-77
2022/07/23 08:08:50;;;;;;;6.70;1.13;;;;;;;;;;5071421;28;20022;-76
2022/07/23 08:11:16;;;;;;;2.35;0.70;;;;;;;;;;5064804;28;20095;-77
2022/07/23 08:13:44;;;;;;;2.17;0.88;;;;;;;;;;5065571;28;20036;-77
2022/07/23 08:16:10;;;;;;;3.60;1.05;;;;;;;;;;5074415;28;20051;-76
2022/07/23 08:18:36;;;;;;;4.03;0.93;;;;;;;;;;5062770;28;20033;-77
2022/07/23 08:21:04;;;;;;;5.93;1.00;;;;;;;;;;5057206;28;20029;-77
2022/07/23 08:23:30;;;;;;;2.90;0.90;;;;;;;;;;5056628;28;20489;-79
2022/07/23 08:25:56;;;;;;;4.80;0.90;;;;;;;;;;5057330;28;20074;-79
2022/07/23 08:28:22;;;;;;;3.85;0.77;;;;;;;;;;5056463;28;20044;-78
2022/07/23 08:30:48;;;;;;;5.65;1.20;;;;;;;;;;5057756;28;20021;-77
2022/07/23 08:33:16;;;;;;;6.50;1.52;;;;;;;;;;5060219;28;20025;-77
2022/07/23 08:35:44;;;;;;;5.43;1.10;;;;;;;;;;5057337;28;20089;-78
2022/07/23 08:38:11;;;;;;;4.68;1.08;;;;;;;;;;5057303;28;20046;-77
2022/07/23 08:40:38;;;;;;;6.65;1.70;;;;;;;;;;5062224;28;20426;-79
2022/07/23 08:43:05;;;;;;;2.53;0.60;;;;;;;;;;5065453;28;20084;-75
2022/07/23 08:45:35;;;;;;;4.63;2.00;;;;;;;;;;5072060;28;20017;-77
2022/07/23 08:48:02;;;;;;;2.08;0.77;;;;;;;;;;5075491;28;20044;-76
2022/07/23 08:50:28;;;;;;;2.65;0.80;;;;;;;;;;5072524;28;20033;-78
2022/07/23 08:52:54;;;;;;;3.58;0.90;;;;;;;;;;5069379;28;20021;-77
2022/07/23 08:55:21;;;;;;;10.07;0.80;;;;;;;;;;5072134;28;20067;-77
2022/07/23 08:57:54;;;;;;;5.90;2.15;;;;;;;;;;5070456;28;20036;-77
2022/07/23 09:00:21;;;;;;;3.90;0.77;;;;;;;;;;5072133;28;20052;-76
2022/07/23 09:02:47;;;;;;;2.05;0.63;;;;;;;;;;5069411;28;20033;-77
2022/07/23 09:05:14;;;;;;;2.05;0.80;;;;;;;;;;5068865;28;20032;-77
2022/07/23 09:07:58;;;;;;;2.38;0.70;;;;;;;;;;5065773;28;20108;-76
2022/07/23 09:10:24;;;;;;;2.65;0.70;;;;;;;;;;5057050;28;20066;-79
2022/07/23 09:12:50;;;;;;;5.90;0.80;;;;;;;;;;5058474;28;20029;-81
2022/07/23 09:15:16;;;;;;;4.07;1.00;;;;;;;;;;5061482;28;20029;-77
2022/07/23 09:17:43;;;;;;;4.05;0.68;;;;;;;;;;5062961;28;20033;-77
2022/07/23 09:20:10;;;;;;;1.02;0.80;;;;;;;;;;5056477;28;20020;-77
2022/07/23 09:22:36;;;;;;;4.88;1.20;;;;;;;;;;5063667;28;20121;-77
2022/07/23 09:25:10;;;;;;;1.65;0.77;;;;;;;;;;5061496;28;20045;-76
2022/07/23 09:27:48;;;;;;;1.98;0.80;;;;;;;;;;5073183;28;20024;-78
2022/07/23 09:30:14;;;;;;;34.60;19.85;;;;;;;;;;5068313;28;20029;-77
2022/07/23 09:32:40;;;;;;;7.80;2.55;;;;;;;;;;5067564;28;20036;-77
2022/07/23 09:35:07;;;;;;;4.03;1.05;;;;;;;;;;5066675;28;20051;-76
2022/07/23 09:37:33;;;;;;;3.25;0.85;;;;;;;;;;5065897;28;20025;-78
2022/07/23 09:40:09;;;;;;;2.92;0.95;;;;;;;;;;5062263;28;20029;-80
2022/07/23 09:42:35;;;;;;;6.38;0.88;;;;;;;;;;5057216;28;20112;-78
2022/07/23 09:45:01;;;;;;;2.97;0.70;;;;;;;;;;5070231;28;20025;-77
2022/07/23 09:47:29;;;;;;;1.95;0.68;;;;;;;;;;5066158;28;20048;-76
2022/07/23 09:50:01;;;;;;;2.45;0.80;;;;;;;;;;5065085;28;20100;-75
2022/07/23 09:52:32;;;;;;;3.05;0.90;;;;;;;;;;5058867;28;20024;-77
2022/07/23 09:55:00;;;;;;;4.35;1.00;;;;;;;;;;5059233;28;20096;-77
2022/07/23 09:57:26;;;;;;;3.38;1.00;;;;;;;;;;5054167;28;20506;-77
2022/07/23 09:59:52;;;;;;;3.28;0.80;;;;;;;;;;5054554;28;20067;-78
2022/07/23 10:02:19;;;;;;;6.63;4.10;;;;;;;;;;5053955;28;20067;-75
2022/07/23 10:04:45;;;;;;;5.68;2.97;;;;;;;;;;5053693;28;20043;-77
2022/07/23 10:07:11;;;;;;;4.63;1.55;;;;;;;;;;5053965;28;20025;-77
2022/07/23 10:09:38;;;;;;;2.35;1.00;;;;;;;;;;5055450;28;20025;-76
2022/07/23 10:14:33;;;;;;;2.63;1.02;;;;;;;;;;5055527;28;20490;-77
2022/07/23 10:16:59;;;;;;;6.78;1.27;;;;;;;;;;5055705;28;20025;-76
2022/07/23 10:19:26;;;;;;;1.85;0.90;;;;;;;;;;5060266;28;20029;-77
2022/07/23 10:21:55;;;;;;;6.13;1.35;;;;;;;;;;5062189;28;20543;-76
2022/07/23 10:24:26;;;;;;;3.03;0.70;;;;;;;;;;5056994;28;20497;-76
2022/07/23 10:27:10;;;;;;;3.55;1.30;;;;;;;;;;5066099;28;20025;-79
2022/07/23 10:29:58;;;;;;;2.13;0.70;;;;;;;;;;5061877;28;20040;-77
2022/07/23 10:32:37;;;;;;;4.20;0.80;;;;;;;;;;5031016;28;20045;-77
2022/07/23 10:35:22;;;;;;;3.55;0.82;;;;;;;;;;5056589;28;20028;-78
2022/07/23 10:37:53;;;;;;;7.13;1.00;;;;;;;;;;5059360;28;20029;-78
2022/07/23 10:40:22;;;;;;;5.50;1.30;;;;;;;;;;5058627;28;20040;-76
2022/07/23 10:42:48;;;;;;;3.40;0.80;;;;;;;;;;5068756;28;20021;-76
2022/07/23 10:45:32;;;;;;;6.88;1.30;;;;;;;;;;5071130;28;20041;-77
2022/07/23 10:48:15;;;;;;;4.65;0.95;;;;;;;;;;5060751;28;20025;-77
2022/07/23 10:50:41;;;;;;;4.80;1.48;;;;;;;;;;5061908;28;20460;-77
2022/07/23 10:53:12;;;;;;;7.93;3.47;;;;;;;;;;5054026;28;20063;-79
2022/07/23 10:55:38;;;;;;;16.02;8.48;;;;;;;;;;5054033;28;20028;-78
2022/07/23 10:58:06;;;;;;;2.92;1.40;;;;;;;;;;5057101;28;20539;-77
2022/07/23 11:00:33;;;;;;;2.20;1.00;;;;;;;;;;5068104;28;20009;-75
2022/07/23 11:03:00;;;;;;;5.68;1.83;;;;;;;;;;5074480;28;20078;-78
2022/07/23 11:05:27;;;;;;;3.65;1.10;;;;;;;;;;5064291;28;20036;-78
2022/07/23 11:08:10;;;;;;;2.55;0.93;;;;;;;;;;5056498;28;20159;-77
2022/07/23 11:10:42;;;;;;;2.10;1.00;;;;;;;;;;5064063;28;20025;-76
2022/07/23 11:13:27;;;;;;;3.47;0.85;;;;;;;;;;5069200;28;20295;-76
2022/07/23 11:16:02;;;;;;;5.63;0.90;;;;;;;;;;5066863;28;20045;-77
2022/07/23 11:18:43;;;;;;;1.83;0.70;;;;;;;;;;5065605;28;20032;-77
2022/07/23 11:21:22;;;;;;;2.03;0.90;;;;;;;;;;5064959;28;20461;-76
2022/07/23 11:23:57;;;;;;;2.08;0.90;;;;;;;;;;5090624;22;20143;-71
2022/07/23 11:26:39;;;;;;;6.97;1.42;;;;;;;;;;5070257;28;20020;-70
2022/07/23 11:29:24;;;;;;;3.55;1.20;;;;;;;;;;5071465;28;20017;-71
2022/07/23 11:31:55;;;;;;;12.57;2.35;;;;;;;;;;5072187;28;20029;-71
2022/07/23 11:34:31;;;;;;;5.28;1.60;;;;;;;;;;5072015;28;20096;-72
2022/07/23 11:36:57;;;;;;;10.10;3.00;;;;;;;;;;5070486;28;20080;-71
2022/07/23 11:39:25;;;;;;;17.45;4.32;;;;;;;;;;5070878;28;20112;-71
2022/07/23 11:41:52;;;;;;;11.60;2.08;;;;;;;;;;5070669;28;20025;-71
2022/07/23 11:44:28;;;;;;;9.98;3.47;;;;;;;;;;5073010;28;20392;-71
2022/07/23 11:47:01;;;;;;;7.95;1.50;;;;;;;;;;5070514;28;20035;-71
2022/07/23 11:49:27;;;;;;;3.63;1.20;;;;;;;;;;5071205;28;20051;-72
2022/07/23 11:52:04;;;;;;;4.03;1.42;;;;;;;;;;5069029;28;20021;-72
2022/07/23 11:54:30;;;;;;;4.63;0.98;;;;;;;;;;5071249;28;20443;-71
2022/07/23 11:56:56;;;;;;;10.57;1.38;;;;;;;;;;5070460;28;20018;-71
2022/07/23 11:59:23;;;;;;;8.10;1.58;;;;;;;;;;5071163;28;20036;-71
2022/07/23 12:01:57;;;;;;;6.43;1.42;;;;;;;;;;5078750;28;20075;-73
2022/07/23 12:04:23;;;;;;;4.15;1.27;;;;;;;;;;5071453;28;20494;-72
2022/07/23 12:06:49;;;;;;;5.85;1.40;;;;;;;;;;5069731;28;20497;-72
2022/07/23 12:09:15;;;;;;;6.65;1.45;;;;;;;;;;5072520;28;20035;-72
2022/07/23 12:11:56;;;;;;;9.98;3.72;;;;;;;;;;5070640;28;20135;-73
2022/07/23 12:14:22;;;;;;;5.47;1.80;;;;;;;;;;5070335;28;20032;-71
2022/07/23 12:17:06;;;;;;;6.13;0.75;;;;;;;;;;5073609;28;20430;-74
2022/07/23 12:19:33;;;;;;;4.30;1.10;;;;;;;;;;5075358;28;20033;-73
2022/07/23 12:22:02;;;;;;;7.78;1.40;;;;;;;;;;5075338;28;20056;-75
2022/07/23 12:24:28;;;;;;;5.53;1.25;;;;;;;;;;5074460;28;20043;-73
2022/07/23 12:27:13;;;;;;;4.47;1.15;;;;;;;;;;5075630;28;20394;-74
2022/07/23 12:29:39;;;;;;;3.78;0.80;;;;;;;;;;5074942;28;20084;-74
2022/07/23 12:32:19;;;;;;;1.45;0.73;;;;;;;;;;5073661;28;20447;-73
2022/07/23 12:34:45;;;;;;;2.20;0.70;;;;;;;;;;5074668;28;20054;-73
2022/07/23 12:37:37;;;;;;;2.47;0.70;;;;;;;;;;5072751;28;20170;-73
2022/07/23 12:40:42;;;;;;;3.83;0.80;;;;;;;;;;5071831;28;20446;-71
2022/07/23 12:43:10;;;;;;;1.58;0.50;;;;;;;;;;5031047;28;20037;-72
2022/07/23 12:45:43;;;;;;;4.55;0.80;;;;;;;;;;5035451;28;20018;-72
2022/07/23 12:48:15;;;;;;;5.70;0.90;;;;;;;;;;5062749;28;20052;-71
2022/07/23 12:50:43;;;;;;;2.40;0.65;;;;;;;;;;5077689;28;20024;-71
2022/07/23 12:53:14;;;;;;;1.15;0.70;;;;;;;;;;5078244;28;20040;-71
2022/07/23 12:55:41;;;;;;;3.70;1.40;;;;;;;;;;5076899;28;20516;-71
2022/07/23 12:58:12;;;;;;;3.22;0.82;;;;;;;;;;5070937;28;20248;-73
2022/07/23 13:01:01;;;;;;;2.90;1.00;;;;;;;;;;5073302;28;20047;-72
2022/07/23 13:03:28;;;;;;;4.28;0.90;;;;;;;;;;5072980;28;20059;-71
2022/07/23 13:05:54;;;;;;;5.07;0.70;;;;;;;;;;5072792;28;20045;-72
2022/07/23 13:08:20;;;;;;;4.82;0.90;;;;;;;;;;5071734;28;20017;-71
2022/07/23 13:10:48;;;;;;;6.70;1.02;;;;;;;;;;5072735;28;20512;-71
2022/07/23 13:13:14;;;;;;;6.30;1.33;;;;;;;;;;5071801;28;20039;-73
2022/07/23 13:15:40;;;;;;;2.65;0.70;;;;;;;;;;5074818;28;20028;-72
2022/07/23 13:18:06;;;;;;;4.63;1.38;;;;;;;;;;5075574;28;20457;-72
2022/07/23 13:20:33;;;;;;;2.70;0.60;;;;;;;;;;5074815;28;20024;-72
2022/07/23 13:22:59;;;;;;;3.78;1.00;;;;;;;;;;5075278;28;20037;-71
2022/07/23 13:25:25;;;;;;;4.32;1.30;;;;;;;;;;5075058;28;20074;-72
2022/07/23 13:27:51;;;;;;;2.38;0.90;;;;;;;;;;5075623;28;20419;-73
2022/07/23 13:30:17;;;;;;;6.60;1.50;;;;;;;;;;5074642;28;20024;-72
2022/07/23 13:32:43;;;;;;;6.28;1.60;;;;;;;;;;5073958;28;20085;-72
2022/07/23 13:35:09;;;;;;;5.43;1.73;;;;;;;;;;5073511;28;20029;-72
2022/07/23 13:37:35;;;;;;;4.40;1.40;;;;;;;;;;5073601;28;20025;-75
2022/07/23 13:40:02;;;;;;;4.43;1.60;;;;;;;;;;5075655;28;20033;-75
2022/07/23 13:42:28;;;;;;;4.50;1.00;;;;;;;;;;5074452;28;20031;-74
2022/07/23 13:44:54;;;;;;;4.28;1.10;;;;;;;;;;5074240;28;20020;-74
2022/07/23 13:47:20;;;;;;;7.35;1.60;;;;;;;;;;5073487;28;20091;-74
2022/07/23 13:49:46;;;;;;;4.63;1.02;;;;;;;;;;5074422;28;20016;-72
2022/07/23 13:52:12;;;;;;;5.20;0.90;;;;;;;;;;5077385;28;20571;-74
2022/07/23 13:54:38;;;;;;;6.60;1.27;;;;;;;;;;5078152;28;20040;-72
2022/07/23 13:57:04;;;;;;;6.47;1.52;;;;;;;;;;5073016;28;20085;-74
2022/07/23 13:59:30;;;;;;;4.43;1.20;;;;;;;;;;5072946;28;20183;-74
2022/07/23 14:01:56;;;;;;;6.45;0.80;;;;;;;;;;5073185;28;20024;-72
2022/07/23 14:04:22;;;;;;;6.68;1.48;;;;;;;;;;5073397;28;20125;-70
2022/07/23 14:06:48;;;;;;;4.45;1.58;;;;;;;;;;5072931;28;20021;-71
2022/07/23 14:09:14;;;;;;;5.15;1.27;;;;;;;;;;5075588;28;20024;-73
2022/07/23 14:11:40;;;;;;;7.93;1.83;;;;;;;;;;5075526;28;20032;-73
2022/07/23 14:14:06;;;;;;;6.47;1.40;;;;;;;;;;5074481;28;20287;-73
2022/07/23 14:16:32;;;;;;;4.05;1.10;;;;;;;;;;5074127;28;20501;-72
2022/07/23 14:18:58;;;;;;;4.15;1.30;;;;;;;;;;5073743;28;20116;-72
2022/07/23 14:21:24;;;;;;;4.10;1.33;;;;;;;;;;5073537;28;20056;-72
2022/07/23 14:23:50;;;;;;;5.60;1.17;;;;;;;;;;5072620;28;20063;-71
2022/07/23 14:26:16;;;;;;;4.63;1.33;;;;;;;;;;5074057;28;20028;-71
2022/07/23 14:28:42;;;;;;;2.55;0.88;;;;;;;;;;5076946;28;20021;-71
2022/07/23 14:31:10;;;;;;;6.63;0.98;;;;;;;;;;5077287;28;20033;-73
2022/07/23 14:33:36;;;;;;;5.88;1.42;;;;;;;;;;5074789;28;20020;-71
2022/07/23 14:36:02;;;;;;;4.10;1.98;;;;;;;;;;5072347;28;20107;-73
2022/07/23 14:38:30;;;;;;;9.63;3.30;;;;;;;;;;5070075;28;20044;-73
2022/07/23 14:40:56;;;;;;;2.55;1.25;;;;;;;;;;5074021;28;20025;-70
2022/07/23 14:43:22;;;;;;;7.20;2.40;;;;;;;;;;5076013;28;20537;-73
2022/07/23 14:45:49;;;;;;;3.70;1.48;;;;;;;;;;5078224;28;20028;-72
2022/07/23 14:48:15;;;;;;;8.00;3.28;;;;;;;;;;5074422;28;20102;-72